AirNav   Pilot Hours Calculator
 
 1113 users online  

KRCE Clarence E Page Municipal Airport
Oklahoma City, Oklahoma, USA

GOING TO OKLAHOMA CITY?


FAA INFORMATION EFFECTIVE 09 SEPTEMBER 2021

Location

FAA Identifier: RCE
Lat/Long: 35-29-17.1000N 097-49-24.8000W
35-29.285000N 097-49.413333W
35.4880833,-97.8235556
(estimated)
Elevation: 1353.8 ft. / 412.6 m (surveyed)
Variation: 07E (1990)
From city: 15 miles W of OKLAHOMA CITY, OK
Time zone: UTC -5 (UTC -6 during Standard Time)
Zip code: 73099

Airport Operations

Airport use: Open to the public
Control tower: no
ARTCC: FORT WORTH CENTER
FSS: MC ALESTER FLIGHT SERVICE STATION
NOTAMs facility: MLC (NOTAM-D service available)
Attendance: MON-SAT 0730-1730
Wind indicator: lighted
Segmented circle: yes
Lights: DUSK-DAWN. ACTVT HIRL RY 17R/35L & MIRL 17L/35R - CTAF.
Beacon: white-green (lighted land airport)
Operates sunset to sunrise.

Airport Communications

CTAF/UNICOM: 123.0
WX AWOS-3: 125.05 (405-354-2617)
OKE CITY APPROACH: 124.6
OKE CITY DEPARTURE: 124.6
WX AWOS-3 at HSD (9 nm NE): 120.975 (405-283-9848)
WX AWOS-3 at RQO (9 nm W): 118.475 (405-262-0087)
WX ASOS at PWA (9 nm E): PHONE 405-798-2013
WX ASOS at OKC (12 nm SE): PHONE 405-686-4711

Nearby radio navigation aids

VOR radial/distance  VOR name  Freq  Var
PWAr245/9.0WILEY POST VOR/DME113.4008E
IRWr300/13.0WILL ROGERS VORTAC114.1007E
IFIr146/21.0KINGFISHER VORTAC114.7009E

Airport Services

Fuel available: 100LL JET-A
Parking: tiedowns
Airframe service: MAJOR
Powerplant service: MAJOR
Bottled oxygen: HIGH
Bulk oxygen: NONE

Runway Information

Runway 17R/35L

Dimensions: 6014 x 100 ft. / 1833 x 30 m
Surface: concrete, in good condition
Weight bearing capacity: 
Single wheel: 40.0
Double wheel: 60.0
Runway edge lights: high intensity
RUNWAY 17R  RUNWAY 35L
Latitude: 35-29.778348N35-28.787122N
Longitude: 097-49.485717W097-49.490025W
Elevation: 1350.5 ft.1342.3 ft.
Traffic pattern: rightleft
Runway heading: 173 magnetic, 180 true353 magnetic, 360 true
Markings: nonprecision, in good conditionnonprecision, in good condition
Visual slope indicator: 4-light PAPI on left (3.00 degrees glide path)4-light PAPI on left (3.00 degrees glide path)
Touchdown point: yes, no lightsyes, no lights
Obstructions: 7 ft. fence, lighted, 250 ft. from runway, 220 ft. right of centerline, 7:1 slope to clear26 ft. trees, 850 ft. from runway, 330 ft. right of centerline, 25:1 slope to clear

Runway 17L/35R

Dimensions: 3502 x 75 ft. / 1067 x 23 m
Surface: concrete, in good condition
Weight bearing capacity: 
Single wheel: 17.0
Runway edge lights: medium intensity
RUNWAY 17L  RUNWAY 35R
Latitude: 35-29.578920N35-29.001650N
Longitude: 097-49.285070W097-49.287630W
Elevation: 1343.0 ft.1339.0 ft.
Traffic pattern: leftright
Runway heading: 173 magnetic, 180 true353 magnetic, 360 true
Markings: basic, in good conditionbasic, in good condition
Touchdown point: yes, no lightsyes, no lights

Airport Ownership and Management from official FAA records

Ownership: Publicly-owned
Owner: CITY OF OKLAHOMA CITY
7100 TERMINAL DR., BOX 937
OKLAHOMA CITY, OK 73159
Phone (405) 316-3200
Manager: KRISTY SLATER
5915 PHILLIP J. RHOADES RM 104
BETHANY, OK 73008
Phone 405-316-4061

Airport Operational Statistics

Aircraft based on the field: 53
Single engine airplanes: 46
Multi engine airplanes: 4
Jet airplanes: 1
Helicopters: 1
Ultralights: 1
    
Aircraft operations: avg 117/day *
74% local general aviation
21% transient general aviation
5% military
<1% air taxi
* for 12-month period ending 18 April 2018

Additional Remarks

DEER ON & INVOF RY.
AEROBATIC ACFT BLO 6400 FT 1 NM RADIUS OF ARPT.
SFC CONDS RPTD MON-FRI 0800-1700.
FOR CD CTC OKE CITY APCH AT 405-681-5683.

Instrument Procedures

NOTE: All procedures below are presented as PDF files. If you need a reader for these files, you should download the free Adobe Reader.

NOT FOR NAVIGATION. Please procure official charts for flight.
FAA instrument procedures published for use from 09 September 2021 at 0901Z to 07 October 2021 at 0900Z.

 
STARs - Standard Terminal Arrivals
GULLI TWO   2 pages: [1] [2] (319KB)
 
IAPs - Instrument Approach Procedures
RNAV (GPS) RWY 17R   download (229KB)
RNAV (GPS) RWY 35L   download (233KB)
VOR-B   download (183KB)
NOTE: Special Alternate Minimums apply   download (23KB)
NOTE: Special Take-Off Minimums/Departure Procedures apply   download (131KB)

Other nearby airports with instrument procedures:

KHSD - Sundance Airport (9 nm NE)
KRQO - El Reno Regional Airport (9 nm W)
KPWA - Wiley Post Airport (9 nm E)
KOKC - Will Rogers World Airport (12 nm SE)
KTIK - Tinker Air Force Base (22 nm E)
 
Loc | Ops | Rwys | IFR | FBO | Links
Com | Nav | Svcs | Stats | Notes
Area around KRCE (Clarence E Page Municipal Airport)
 
Road maps at: MapQuest Bing Google
 
Aerial photo
WARNING: Photo may not be current or correct
Aerial photo of KRCE (Clarence E Page Municipal Airport)
Photo taken 16-Feb-2014
looking southeast.

Do you have a better or more recent aerial photo of Clarence E Page Municipal Airport that you would like to share? If so, please send us your photo.

 
Sectional chart

 
Airport diagram
Diagram of KRCE (Clarence E Page Municipal Airport)
Download PDF
of official airport diagram from the FAA

 
Airport distance calculator
Flying to Clarence E Page Municipal Airport? Find the distance to fly.

From to KRCE

Sunrise and sunset
Times for 21-Sep-2021
 Local
(UTC-5)
 Zulu
(UTC)
Morning civil twilight06:5411:54
Sunrise07:1912:19
Sunset19:2900:29
Evening civil twilight19:5500:55

Current date and time
Zulu (UTC)  21-Sep-2021 12:36:25
Local (UTC-5)  21-Sep-2021 07:36:25
 
METAR
KRCE 211215Z AUTO 01018KT 10SM BKN080 OVC090 18/08 A3019 RMK AO2
KPWA 
9nm E 
211153Z 01017KT 10SM CLR 19/07 A3016 RMK AO2 PK WND 01028/1055 SLP197 T01890067 10239 20189 53030
KHSD 
9nm NE 
211215Z AUTO 36017KT 10SM BKN085 BKN120 18/07 A3019 RMK A01
KRQO 
9nm W 
211215Z AUTO 36017KT 10SM BKN080 17/08 A3020 RMK AO2 T01700084
KOKC 
13nm SE 
211152Z 02018G26KT 10SM BKN080 BKN150 19/07 A3015 RMK AO2 PK WND 02027/1056 SLP194 T01890067 10239 20189 53033
TAF
KOKC 
13nm SE 
211120Z 2112/2212 01017G25KT P6SM SCT080 BKN150 FM220000 01009KT P6SM SKC
NOTAMs
Click for the latest NOTAMs
NOTAMs are issued by the DoD/FAA and will open in a separate window not controlled by AirNav.

 

 
 

FBO, Fuel Providers, and Aircraft Ground Support

  
 Business Name 
 
 Contact 
 
 Services / Description 
 
Fuel Prices
 
Comments
  
Legacy Aviation Services, Inc. 405-350-2100
[web site]
[email]
Aviation fuel, Aircraft ground handling, Oxygen service, Aircraft parking (ramp or tiedown), Hangars, Hangar leasing / sales, GPU / Power cart, ...
 
FAA-Approved Repair Station   Better Business Bureau   National Business Aviation Association  
 
More info about Legacy Aviation Services, Inc.
Phillips 66
100LL Jet A
FS $5.30 $4.25 
 Updated 17-Sep-2021
 
   write
FS=Full service
Update Fuel Prices
 

Would you like to see your business listed on this page?

 If your business provides an interesting product or service to pilots, flight crews, aircraft, or users of the Clarence E Page Municipal Airport, you should consider listing it here.  To start the listing process, click on the button below
 
Add a business
 

Other Pages about Clarence E Page Municipal Airport

www.flyokc.com/...
 
Update a link
 
Copyright © AirNav, LLC. All rights reserved. Privacy Policy  Contact